createdAt,value
2018-11-10T00:01:01.494Z,28.17
2018-11-10T00:03:29.957Z,28.17
2018-11-10T00:05:58.426Z,27.87
2018-11-10T00:08:26.978Z,27.37
2018-11-10T00:10:55.405Z,27.30
2018-11-10T00:13:23.889Z,26.60
2018-11-10T00:15:52.361Z,25.47
2018-11-10T00:18:20.865Z,26.90
2018-11-10T00:20:49.345Z,26.07
2018-11-10T00:23:17.813Z,25.93
2018-11-10T00:25:46.305Z,25.63
2018-11-10T00:28:15.469Z,26.37
2018-11-10T00:30:43.974Z,25.57
2018-11-10T00:33:12.450Z,26.33
2018-11-10T00:35:40.997Z,26.43
2018-11-10T00:38:09.493Z,27.63
2018-11-10T00:40:37.977Z,26.30
2018-11-10T00:43:06.505Z,26.37
2018-11-10T00:45:34.976Z,25.60
2018-11-10T00:48:03.505Z,26.63
2018-11-10T00:50:31.997Z,26.70
2018-11-10T00:53:00.517Z,25.67
2018-11-10T00:55:29.050Z,27.13
2018-11-10T00:57:57.521Z,26.27
2018-11-10T01:00:26.017Z,27.40
2018-11-10T01:02:54.673Z,25.93
2018-11-10T01:05:23.146Z,27.30
2018-11-10T01:07:51.628Z,27.47
2018-11-10T01:10:20.137Z,27.17
2018-11-10T01:12:48.625Z,26.33
2018-11-10T01:15:17.236Z,26.60
2018-11-10T01:17:45.793Z,28.10
2018-11-10T01:20:14.709Z,25.70
2018-11-10T01:22:43.218Z,28.50
2018-11-10T01:25:12.074Z,26.13
2018-11-10T01:27:40.536Z,27.10
2018-11-10T01:30:11.817Z,27.40
2018-11-10T01:32:40.389Z,26.70
2018-11-10T01:35:08.948Z,26.73
2018-11-10T01:37:37.953Z,27.30
2018-11-10T01:40:08.262Z,26.67
2018-11-10T01:42:36.729Z,27.63
2018-11-10T01:45:06.717Z,27.40
2018-11-10T01:47:35.184Z,25.13
2018-11-10T01:50:04.006Z,26.23
2018-11-10T01:52:32.477Z,26.43
2018-11-10T01:55:00.976Z,27.60
2018-11-10T01:57:29.442Z,25.37
2018-11-10T01:59:57.936Z,27.00
2018-11-10T02:02:26.401Z,26.67
2018-11-10T02:04:54.877Z,26.40
2018-11-10T02:07:23.397Z,27.83
2018-11-10T02:09:51.865Z,26.30
2018-11-10T02:12:21.311Z,25.80
2018-11-10T02:14:49.778Z,26.37
2018-11-10T02:17:18.569Z,25.33
2018-11-10T02:19:47.040Z,24.83
2018-11-10T02:22:15.632Z,27.50
2018-11-10T02:24:44.150Z,26.73
2018-11-10T02:27:17.982Z,27.80
2018-11-10T02:29:46.476Z,27.90
2018-11-10T02:32:14.990Z,26.33
2018-11-10T02:34:43.469Z,31.60
2018-11-10T02:37:12.085Z,32.50
2018-11-10T02:39:40.561Z,31.23
2018-11-10T02:42:09.106Z,31.10
2018-11-10T02:44:37.589Z,31.60
2018-11-10T02:47:06.073Z,33.43
2018-11-10T02:49:34.565Z,35.57
2018-11-10T02:52:03.052Z,35.83
2018-11-10T02:54:31.551Z,32.70
2018-11-10T02:57:00.026Z,34.27
2018-11-10T02:59:28.521Z,32.97
2018-11-10T03:01:56.986Z,33.47
2018-11-10T03:04:25.485Z,32.10
2018-11-10T03:06:53.954Z,33.50
2018-11-10T03:09:22.476Z,32.33
2018-11-10T03:11:50.957Z,29.10
2018-11-10T03:14:19.476Z,30.80
2018-11-10T03:16:47.960Z,32.80
2018-11-10T03:19:16.434Z,31.63
2018-11-10T03:21:44.944Z,31.60
2018-11-10T03:24:13.430Z,31.70
2018-11-10T03:26:41.929Z,30.47
2018-11-10T03:29:10.405Z,31.63
2018-11-10T03:31:38.909Z,32.83
2018-11-10T03:34:07.393Z,32.33
2018-11-10T03:36:35.932Z,32.10
2018-11-10T03:39:06.428Z,35.20
2018-11-10T03:41:34.930Z,32.17
2018-11-10T03:44:03.429Z,32.10
2018-11-10T03:46:31.945Z,35.87
2018-11-10T03:49:00.425Z,35.57
2018-11-10T03:51:28.932Z,32.83
2018-11-10T03:53:57.404Z,33.60
2018-11-10T03:56:25.927Z,34.73
2018-11-10T03:58:54.405Z,33.70
2018-11-10T04:01:22.908Z,34.00
2018-11-10T04:03:51.394Z,36.70
2018-11-10T04:06:19.873Z,36.10
2018-11-10T04:08:48.383Z,38.40
2018-11-10T04:11:16.873Z,37.87
2018-11-10T04:13:45.381Z,38.10
2018-11-10T04:16:13.866Z,37.93
2018-11-10T04:18:42.381Z,35.40
2018-11-10T04:21:10.861Z,35.77
2018-11-10T04:23:39.558Z,33.90
2018-11-10T04:26:08.061Z,35.07
2018-11-10T04:28:36.629Z,36.40
2018-11-10T04:31:05.581Z,38.57
2018-11-10T04:33:34.114Z,37.87
2018-11-10T04:36:02.585Z,38.37
2018-11-10T04:38:31.094Z,39.73
2018-11-10T04:40:59.604Z,41.33
2018-11-10T04:43:28.085Z,39.80
2018-11-10T04:45:56.602Z,40.40
2018-11-10T04:48:25.098Z,40.43
2018-11-10T04:50:53.600Z,40.40
2018-11-10T04:53:22.081Z,37.70
2018-11-10T04:55:50.603Z,37.30
2018-11-10T04:58:19.072Z,35.00
2018-11-10T05:00:47.596Z,35.53
2018-11-10T05:03:16.076Z,33.30
2018-11-10T05:05:44.549Z,33.87
2018-11-10T05:08:13.049Z,33.33
2018-11-10T05:10:41.534Z,34.27
2018-11-10T05:13:10.041Z,35.83
2018-11-10T05:15:38.525Z,34.57
2018-11-10T05:18:07.057Z,33.90
2018-11-10T05:20:35.529Z,34.63
2018-11-10T05:23:04.093Z,33.17
2018-11-10T05:25:32.560Z,32.47
2018-11-10T05:28:01.068Z,31.60
2018-11-10T05:30:29.545Z,31.30
2018-11-10T05:32:58.017Z,30.70
2018-11-10T05:35:26.549Z,32.60
2018-11-10T05:37:55.053Z,33.40
2018-11-10T05:40:23.552Z,32.83
2018-11-10T05:42:52.024Z,30.83
2018-11-10T05:45:20.533Z,31.00
2018-11-10T05:47:49.012Z,30.23
2018-11-10T05:50:17.528Z,31.70
2018-11-10T05:52:46.004Z,31.70
2018-11-10T05:55:14.517Z,29.40
2018-11-10T05:57:42.988Z,33.13
2018-11-10T06:00:12.991Z,31.57
2018-11-10T06:02:41.832Z,28.57
2018-11-10T06:05:10.864Z,29.53
2018-11-10T06:07:39.336Z,27.60
2018-11-10T06:10:09.274Z,27.73
2018-11-10T06:12:37.672Z,26.30
2018-11-10T06:15:07.041Z,25.80
2018-11-10T06:17:35.518Z,27.10
2018-11-10T06:20:05.456Z,24.47
2018-11-10T06:22:33.933Z,25.43
2018-11-10T06:25:02.442Z,25.83
2018-11-10T06:27:30.926Z,25.40
2018-11-10T06:29:59.441Z,26.10
2018-11-10T06:32:27.925Z,23.10
2018-11-10T06:34:56.449Z,24.80
2018-11-10T06:37:25.093Z,24.63
2018-11-10T06:39:53.621Z,22.50
2018-11-10T06:42:22.089Z,22.50
2018-11-10T06:44:50.596Z,23.83
2018-11-10T06:47:19.078Z,22.17
2018-11-10T06:49:47.590Z,23.27
2018-11-10T06:52:16.072Z,21.83
2018-11-10T06:54:44.580Z,20.97
2018-11-10T06:57:13.101Z,22.23
2018-11-10T06:59:41.673Z,20.17
2018-11-10T07:02:10.167Z,20.87
2018-11-10T07:04:38.685Z,28.83
2018-11-10T07:07:07.165Z,21.63
2018-11-10T07:09:35.655Z,19.70
2018-11-10T07:12:04.196Z,19.20
2018-11-10T07:14:32.668Z,20.70
2018-11-10T07:17:01.186Z,23.00
2018-11-10T07:19:29.681Z,23.07
2018-11-10T07:21:58.213Z,20.13
2018-11-10T07:24:26.689Z,19.57
2018-11-10T07:26:55.192Z,19.53
2018-11-10T07:29:23.665Z,20.60
2018-11-10T07:31:52.215Z,17.83
2018-11-10T07:34:20.673Z,20.10
2018-11-10T07:36:49.212Z,19.70
2018-11-10T07:39:17.700Z,20.10
2018-11-10T07:41:46.244Z,17.33
2018-11-10T07:44:14.717Z,18.60
2018-11-10T07:46:43.241Z,19.47
2018-11-10T07:49:11.727Z,18.73
2018-11-10T07:51:40.224Z,18.97
2018-11-10T07:54:08.738Z,18.97
2018-11-10T07:56:37.212Z,19.47
2018-11-10T07:59:06.445Z,19.10
2018-11-10T08:01:34.928Z,20.03
2018-11-10T08:04:03.476Z,19.70
2018-11-10T08:06:31.945Z,19.37
2018-11-10T08:09:00.481Z,19.37
2018-11-10T08:11:29.216Z,20.13
2018-11-10T08:13:57.736Z,18.00
2018-11-10T08:16:26.217Z,19.13
2018-11-10T08:18:54.697Z,20.20
2018-11-10T08:21:23.213Z,20.27
2018-11-10T08:23:51.697Z,19.20
2018-11-10T08:26:20.209Z,19.30
2018-11-10T08:28:48.681Z,18.43
2018-11-10T08:31:17.232Z,19.33
2018-11-10T08:33:45.688Z,21.13
2018-11-10T08:36:14.204Z,19.70
2018-11-10T08:38:42.717Z,21.27
2018-11-10T08:41:11.202Z,20.30
2018-11-10T08:43:39.723Z,21.13
2018-11-10T08:46:08.252Z,19.43
2018-11-10T08:48:36.773Z,19.77
2018-11-10T08:51:05.740Z,20.07
2018-11-10T08:53:34.562Z,19.00
2018-11-10T08:56:03.095Z,19.97
2018-11-10T08:58:31.581Z,19.70
2018-11-10T09:01:00.086Z,21.03
2018-11-10T09:03:28.603Z,21.47
2018-11-10T09:05:57.137Z,21.07
2018-11-10T09:08:25.629Z,19.83
2018-11-10T09:10:54.109Z,21.50
2018-11-10T09:13:22.622Z,20.57
2018-11-10T09:15:51.117Z,20.03
2018-11-10T09:18:19.645Z,19.40
2018-11-10T09:20:48.122Z,19.03
2018-11-10T09:23:16.629Z,17.67
2018-11-10T09:25:45.115Z,18.30
2018-11-10T09:28:13.657Z,18.03
2018-11-10T09:30:42.174Z,19.20
2018-11-10T09:33:10.701Z,18.57
2018-11-10T09:35:39.196Z,17.70
2018-11-10T09:38:07.741Z,16.80
2018-11-10T09:40:36.234Z,17.53
2018-11-10T09:43:04.929Z,17.67
2018-11-10T09:45:33.409Z,17.17
2018-11-10T09:48:01.929Z,16.90
2018-11-10T09:50:30.425Z,16.50
2018-11-10T09:52:58.944Z,15.67
2018-11-10T09:55:27.469Z,17.43
2018-11-10T09:57:55.990Z,17.43
2018-11-10T10:00:24.493Z,17.63
2018-11-10T10:02:53.083Z,17.70
2018-11-10T10:05:21.537Z,18.30
2018-11-10T10:07:50.053Z,18.00
2018-11-10T10:10:19.161Z,17.83
2018-11-10T10:12:47.864Z,17.73
2018-11-10T10:15:17.602Z,18.33
2018-11-10T10:17:46.516Z,16.87
2018-11-10T10:20:17.022Z,17.23
2018-11-10T10:22:46.362Z,17.50
2018-11-10T10:25:15.821Z,17.73
2018-11-10T10:27:45.233Z,18.50
2018-11-10T10:30:19.365Z,18.63
2018-11-10T10:32:48.573Z,18.10
2018-11-10T10:35:17.161Z,17.30
2018-11-10T10:37:46.863Z,18.60
2018-11-10T10:40:15.816Z,17.27
2018-11-10T10:42:45.116Z,17.70
2018-11-10T10:45:16.296Z,17.70
2018-11-10T10:47:45.010Z,19.00
2018-11-10T10:50:14.918Z,17.00
2018-11-10T10:52:43.429Z,18.40
2018-11-10T10:55:13.538Z,18.13
2018-11-10T10:57:42.860Z,17.93
2018-11-10T11:00:17.741Z,18.73
2018-11-10T11:02:51.749Z,19.00
2018-11-10T11:05:24.452Z,17.50
2018-11-10T11:07:53.182Z,19.73
2018-11-10T11:10:22.221Z,18.40
2018-11-10T11:12:50.961Z,18.33
2018-11-10T11:15:19.647Z,17.80
2018-11-10T11:17:48.056Z,18.20
2018-11-10T11:20:16.585Z,18.23
2018-11-10T11:22:45.090Z,19.13
2018-11-10T11:25:14.214Z,17.70
2018-11-10T11:27:42.734Z,18.30
2018-11-10T11:30:11.285Z,18.80
2018-11-10T11:32:39.778Z,18.43
2018-11-10T11:35:09.939Z,18.77
2018-11-10T11:37:38.840Z,19.20
2018-11-10T11:40:09.317Z,18.47
2018-11-10T11:42:38.073Z,18.67
2018-11-10T11:45:07.933Z,19.70
2018-11-10T11:47:36.453Z,18.47
2018-11-10T11:50:05.794Z,18.23
2018-11-10T11:52:34.297Z,18.23
2018-11-10T11:55:02.838Z,17.37
2018-11-10T11:57:31.350Z,18.80
2018-11-10T11:59:59.953Z,18.70
2018-11-10T12:02:28.448Z,20.70
2018-11-10T12:04:56.972Z,19.07
2018-11-10T12:07:25.453Z,18.20
2018-11-10T12:09:53.981Z,19.17
2018-11-10T12:12:22.501Z,17.97
2018-11-10T12:14:51.313Z,18.80
2018-11-10T12:17:20.213Z,18.70
2018-11-10T12:19:48.728Z,19.33
2018-11-10T12:22:17.233Z,18.67
2018-11-10T12:24:45.761Z,17.37
2018-11-10T12:27:14.268Z,17.60
2018-11-10T12:29:42.780Z,17.07
2018-11-10T12:32:11.270Z,17.27
2018-11-10T12:34:39.777Z,17.67
2018-11-10T12:37:08.309Z,18.97
2018-11-10T12:39:36.857Z,18.13
2018-11-10T12:42:05.949Z,18.10
2018-11-10T12:44:34.481Z,17.43
2018-11-10T12:47:02.994Z,17.83
2018-11-10T12:49:31.523Z,17.63
2018-11-10T12:52:00.060Z,17.03
2018-11-10T12:54:28.626Z,18.23
2018-11-10T12:56:57.130Z,17.17
2018-11-10T12:59:25.649Z,16.70
2018-11-10T13:01:54.152Z,17.10
2018-11-10T13:04:22.676Z,17.50
2018-11-10T13:06:51.174Z,16.07
2018-11-10T13:09:19.713Z,16.40
2018-11-10T13:11:48.283Z,16.00
2018-11-10T13:14:16.777Z,15.80
2018-11-10T13:16:45.297Z,15.63
2018-11-10T13:19:13.817Z,15.97
2018-11-10T13:21:42.328Z,15.03
2018-11-10T13:24:10.908Z,17.57
2018-11-10T13:26:39.377Z,16.80
2018-11-10T13:29:07.901Z,16.10
2018-11-10T13:31:36.487Z,16.60
2018-11-10T13:34:05.489Z,17.40
2018-11-10T13:36:34.640Z,16.90
2018-11-10T13:39:03.348Z,15.97
2018-11-10T13:41:31.869Z,16.70
2018-11-10T13:44:00.444Z,15.87
2018-11-10T13:46:28.877Z,16.23
2018-11-10T13:48:57.397Z,15.53
2018-11-10T13:51:26.055Z,16.30
2018-11-10T13:53:54.476Z,17.20
2018-11-10T13:56:23.001Z,16.80
2018-11-10T13:58:51.836Z,17.20
2018-11-10T14:01:20.321Z,19.20
2018-11-10T14:03:48.833Z,22.03
2018-11-10T14:06:17.333Z,22.50
2018-11-10T14:08:45.850Z,26.40
2018-11-10T14:11:14.346Z,26.20
2018-11-10T14:13:42.858Z,26.90
2018-11-10T14:16:11.365Z,27.27
2018-11-10T14:18:39.921Z,26.90
2018-11-10T14:21:08.409Z,28.60
2018-11-10T14:23:37.521Z,31.73
2018-11-10T14:26:06.070Z,28.40
2018-11-10T14:28:34.593Z,26.60
2018-11-10T14:31:03.117Z,27.67
2018-11-10T14:33:32.314Z,27.67
2018-11-10T14:36:01.028Z,27.50
2018-11-10T14:38:29.765Z,28.30
2018-11-10T14:40:58.297Z,27.73
2018-11-10T14:43:27.192Z,28.67
2018-11-10T14:45:56.091Z,27.80
2018-11-10T14:48:24.616Z,28.10
2018-11-10T14:50:53.205Z,27.97
2018-11-10T14:53:21.751Z,27.07
2018-11-10T14:55:50.323Z,27.37
2018-11-10T14:58:18.928Z,28.20
2018-11-10T15:00:47.480Z,27.80
2018-11-10T15:03:16.014Z,30.27
2018-11-10T15:05:44.637Z,29.00
2018-11-10T15:08:13.141Z,28.90
2018-11-10T15:10:41.741Z,27.27
2018-11-10T15:13:10.290Z,28.20
2018-11-10T15:15:38.861Z,29.07
2018-11-10T15:18:07.509Z,29.03
2018-11-10T15:20:36.029Z,28.13
2018-11-10T15:23:04.911Z,29.00
2018-11-10T15:25:33.479Z,29.63
2018-11-10T15:28:02.025Z,29.43
2018-11-10T15:30:30.598Z,28.10
2018-11-10T15:32:59.163Z,28.33
2018-11-10T15:35:27.738Z,28.73
2018-11-10T15:37:56.314Z,29.70
2018-11-10T15:40:24.865Z,29.10
2018-11-10T15:42:53.402Z,28.50
2018-11-10T15:45:22.174Z,27.80
2018-11-10T15:47:50.669Z,26.03
2018-11-10T15:50:19.618Z,27.87
2018-11-10T15:52:48.122Z,28.10
2018-11-10T15:55:16.669Z,29.27
2018-11-10T15:57:45.203Z,28.30
2018-11-10T16:00:18.026Z,29.00
2018-11-10T16:02:46.563Z,27.60
2018-11-10T16:05:15.797Z,28.37
2018-11-10T16:07:44.385Z,29.23
2018-11-10T16:10:13.119Z,30.13
2018-11-10T16:12:41.798Z,28.60
2018-11-10T16:15:12.446Z,28.87
2018-11-10T16:17:41.417Z,29.30
2018-11-10T16:20:12.882Z,28.20
2018-11-10T16:22:41.698Z,28.60
2018-11-10T16:25:10.798Z,28.67
2018-11-10T16:27:39.395Z,29.57
2018-11-10T16:30:09.777Z,29.80
2018-11-10T16:32:38.583Z,28.53
2018-11-10T16:35:07.801Z,28.37
2018-11-10T16:37:36.406Z,27.83
2018-11-10T16:40:07.345Z,28.30
2018-11-10T16:42:36.186Z,27.90
2018-11-10T16:45:05.278Z,29.93
2018-11-10T16:47:33.840Z,29.63
2018-11-10T16:50:02.570Z,29.63
2018-11-10T16:52:31.323Z,30.10
2018-11-10T16:55:00.086Z,27.87
2018-11-10T16:57:29.193Z,28.40
2018-11-10T16:59:58.118Z,28.50
2018-11-10T17:02:26.683Z,29.27
2018-11-10T17:04:55.279Z,31.53
2018-11-10T17:07:24.162Z,29.43
2018-11-10T17:09:52.738Z,29.30
2018-11-10T17:12:21.314Z,27.70
2018-11-10T17:14:49.892Z,29.87
2018-11-10T17:17:18.434Z,31.70
2018-11-10T17:19:47.018Z,32.70
2018-11-10T17:22:15.593Z,29.87
2018-11-10T17:24:44.187Z,28.63
2018-11-10T17:27:12.816Z,44.27
2018-11-10T17:29:41.347Z,36.53
2018-11-10T17:32:09.904Z,32.17
2018-11-10T17:34:38.458Z,31.80
2018-11-10T17:37:07.174Z,29.23
2018-11-10T17:39:35.921Z,28.20
2018-11-10T17:42:04.407Z,28.17
2018-11-10T17:44:32.978Z,29.43
2018-11-10T17:47:01.539Z,28.57
2018-11-10T17:49:30.129Z,29.17
2018-11-10T17:51:58.710Z,29.20
2018-11-10T17:54:27.302Z,28.40
2018-11-10T17:56:55.847Z,27.93
2018-11-10T17:59:24.574Z,28.73
2018-11-10T18:01:53.317Z,28.60
2018-11-10T18:04:21.698Z,27.70
2018-11-10T18:06:50.500Z,27.43
2018-11-10T18:09:19.085Z,29.20
2018-11-10T18:11:47.695Z,27.80
2018-11-10T18:14:16.236Z,30.17
2018-11-10T18:16:44.777Z,31.20
2018-11-10T18:19:14.042Z,30.03
2018-11-10T18:21:42.682Z,29.70
2018-11-10T18:24:11.278Z,29.93
2018-11-10T18:26:39.870Z,28.53
2018-11-10T18:29:08.722Z,29.10
2018-11-10T18:31:37.295Z,29.83
2018-11-10T18:34:06.137Z,30.07
2018-11-10T18:36:34.927Z,29.90
2018-11-10T18:39:05.076Z,28.77
2018-11-10T18:41:33.617Z,29.63
2018-11-10T18:44:02.212Z,31.00
2018-11-10T18:46:30.788Z,29.77
2018-11-10T18:48:59.360Z,28.77
2018-11-10T18:51:27.906Z,29.30
2018-11-10T18:53:56.490Z,29.80
2018-11-10T18:56:25.013Z,32.13
2018-11-10T18:58:53.583Z,31.47
2018-11-10T19:01:22.130Z,30.60
2018-11-10T19:03:50.653Z,29.57
2018-11-10T19:06:19.280Z,30.20
2018-11-10T19:08:47.853Z,31.10
2018-11-10T19:11:16.381Z,32.00
2018-11-10T19:13:44.917Z,31.93
2018-11-10T19:16:13.492Z,31.47
2018-11-10T19:18:42.141Z,30.47
2018-11-10T19:21:10.781Z,32.60
2018-11-10T19:23:39.302Z,34.00
2018-11-10T19:26:07.958Z,33.07
2018-11-10T19:28:36.547Z,33.10
2018-11-10T19:31:05.150Z,33.33
2018-11-10T19:33:33.689Z,34.13
2018-11-10T19:36:02.234Z,33.63
2018-11-10T19:38:30.825Z,34.33
2018-11-10T19:40:59.392Z,34.40
2018-11-10T19:43:27.908Z,34.37
2018-11-10T19:45:56.541Z,35.10
2018-11-10T19:48:25.090Z,34.57
2018-11-10T19:50:53.808Z,34.03
2018-11-10T19:53:22.225Z,36.17
2018-11-10T19:55:50.817Z,34.77
2018-11-10T19:58:19.358Z,35.97
2018-11-10T20:00:47.961Z,35.60
2018-11-10T20:03:16.536Z,36.97
2018-11-10T20:05:45.091Z,35.90
2018-11-10T20:08:13.609Z,35.33
2018-11-10T20:10:42.162Z,36.30
2018-11-10T20:13:10.718Z,35.10
2018-11-10T20:15:39.185Z,36.27
2018-11-10T20:18:07.717Z,36.37
2018-11-10T20:20:36.230Z,36.07
2018-11-10T20:23:05.025Z,35.40
2018-11-10T20:25:33.532Z,34.93
2018-11-10T20:28:02.063Z,36.80
2018-11-10T20:30:30.566Z,36.83
2018-11-10T20:32:59.198Z,37.13
2018-11-10T20:35:27.650Z,36.03
2018-11-10T20:37:56.212Z,35.27
2018-11-10T20:40:24.737Z,35.67
2018-11-10T20:42:53.247Z,37.27
2018-11-10T20:45:22.266Z,37.40
2018-11-10T20:47:50.816Z,36.40
2018-11-10T20:50:19.680Z,37.77
2018-11-10T20:52:48.189Z,36.40
2018-11-10T20:55:16.766Z,38.27
2018-11-10T20:57:45.282Z,36.23
2018-11-10T21:00:15.341Z,38.37
2018-11-10T21:02:44.406Z,36.30
2018-11-10T21:05:13.875Z,37.67
2018-11-10T21:07:42.396Z,37.87
2018-11-10T21:10:13.271Z,37.10
2018-11-10T21:12:42.354Z,36.50
2018-11-10T21:15:11.473Z,36.50
2018-11-10T21:17:39.964Z,36.33
2018-11-10T21:20:09.762Z,35.87
2018-11-10T21:22:38.219Z,36.77
2018-11-10T21:25:08.185Z,38.60
2018-11-10T21:27:36.989Z,35.97
2018-11-10T21:30:07.119Z,38.17
2018-11-10T21:32:35.581Z,38.77
2018-11-10T21:35:04.404Z,36.00
2018-11-10T21:37:32.940Z,37.07
2018-11-10T21:40:01.474Z,38.73
2018-11-10T21:42:29.973Z,37.97
2018-11-10T21:44:58.459Z,37.73
2018-11-10T21:47:26.977Z,39.57
2018-11-10T21:49:55.535Z,39.90
2018-11-10T21:52:23.993Z,41.03
2018-11-10T21:54:52.456Z,40.80
2018-11-10T21:57:20.977Z,41.27
2018-11-10T21:59:49.460Z,40.87
2018-11-10T22:02:17.986Z,39.23
2018-11-10T22:04:46.484Z,41.80
2018-11-10T22:07:14.990Z,38.80
2018-11-10T22:09:43.526Z,40.50
2018-11-10T22:12:12.005Z,41.20
2018-11-10T22:14:40.485Z,40.30
2018-11-10T22:17:08.993Z,41.90
2018-11-10T22:19:37.477Z,40.50
2018-11-10T22:22:06.040Z,39.70
2018-11-10T22:24:34.521Z,40.60
2018-11-10T22:27:03.029Z,42.40
2018-11-10T22:29:31.517Z,41.60
2018-11-10T22:32:00.039Z,40.77
2018-11-10T22:34:28.529Z,40.00
2018-11-10T22:36:57.072Z,40.93
2018-11-10T22:39:25.549Z,42.67
2018-11-10T22:41:54.061Z,41.70
2018-11-10T22:44:22.545Z,39.47
2018-11-10T22:46:51.055Z,40.40
2018-11-10T22:49:19.548Z,39.87
2018-11-10T22:51:48.061Z,39.57
2018-11-10T22:54:16.548Z,40.80
2018-11-10T22:56:45.095Z,39.93
2018-11-10T22:59:13.590Z,40.70
2018-11-10T23:01:42.093Z,41.07
2018-11-10T23:04:10.569Z,41.30
2018-11-10T23:06:39.076Z,39.70
2018-11-10T23:09:08.920Z,40.00
2018-11-10T23:11:37.449Z,39.77
2018-11-10T23:14:06.021Z,41.40
2018-11-10T23:16:34.533Z,38.93
2018-11-10T23:19:03.031Z,40.60
2018-11-10T23:21:31.541Z,39.80
2018-11-10T23:24:00.070Z,38.30
2018-11-10T23:26:28.559Z,38.73
2018-11-10T23:28:57.043Z,39.30
2018-11-10T23:31:25.597Z,39.97
2018-11-10T23:33:54.073Z,39.97
2018-11-10T23:36:22.577Z,39.00
2018-11-10T23:38:51.090Z,40.03
2018-11-10T23:41:19.600Z,38.63
2018-11-10T23:43:48.081Z,40.10
2018-11-10T23:46:16.596Z,38.33
2018-11-10T23:48:45.084Z,39.67
2018-11-10T23:51:13.596Z,39.63
2018-11-10T23:53:42.078Z,38.80
2018-11-10T23:56:10.606Z,39.20
2018-11-10T23:58:39.081Z,41.63
